sensor_id;sensor_type;location;lat;lon;timestamp;P1;durP1;ratioP1;P2;durP2;ratioP2
20298;SDS011;10308;42.688;23.256;2023-02-01T00:00:24;3.50;;;3.20;;
20298;SDS011;10308;42.688;23.256;2023-02-01T00:02:51;3.40;;;3.10;;
20298;SDS011;10308;42.688;23.256;2023-02-01T00:05:19;3.13;;;2.92;;
20298;SDS011;10308;42.688;23.256;2023-02-01T00:07:46;3.25;;;3.03;;
20298;SDS011;10308;42.688;23.256;2023-02-01T00:10:13;3.72;;;3.15;;
20298;SDS011;10308;42.688;23.256;2023-02-01T00:12:40;3.28;;;3.00;;
20298;SDS011;10308;42.688;23.256;2023-02-01T00:15:07;2.67;;;2.47;;
20298;SDS011;10308;42.688;23.256;2023-02-01T00:17:34;3.00;;;2.80;;
20298;SDS011;10308;42.688;23.256;2023-02-01T00:20:01;3.00;;;2.80;;
20298;SDS011;10308;42.688;23.256;2023-02-01T00:22:29;2.83;;;2.63;;
20298;SDS011;10308;42.688;23.256;2023-02-01T00:24:56;3.17;;;2.80;;
20298;SDS011;10308;42.688;23.256;2023-02-01T00:27:22;2.80;;;2.60;;
20298;SDS011;10308;42.688;23.256;2023-02-01T00:29:49;3.75;;;3.13;;
20298;SDS011;10308;42.688;23.256;2023-02-01T00:32:16;2.60;;;2.40;;
20298;SDS011;10308;42.688;23.256;2023-02-01T00:34:43;3.05;;;2.47;;
20298;SDS011;10308;42.688;23.256;2023-02-01T00:37:09;2.67;;;2.50;;
20298;SDS011;10308;42.688;23.256;2023-02-01T00:39:37;2.70;;;2.50;;
20298;SDS011;10308;42.688;23.256;2023-02-01T00:42:04;2.95;;;2.75;;
20298;SDS011;10308;42.688;23.256;2023-02-01T00:44:31;2.90;;;2.70;;
20298;SDS011;10308;42.688;23.256;2023-02-01T00:46:59;2.78;;;2.58;;
20298;SDS011;10308;42.688;23.256;2023-02-01T00:49:26;2.90;;;2.70;;
20298;SDS011;10308;42.688;23.256;2023-02-01T00:51:53;2.92;;;2.72;;
20298;SDS011;10308;42.688;23.256;2023-02-01T00:54:20;3.10;;;2.90;;
20298;SDS011;10308;42.688;23.256;2023-02-01T00:56:48;3.30;;;3.00;;
20298;SDS011;10308;42.688;23.256;2023-02-01T00:59:14;3.05;;;2.85;;
20298;SDS011;10308;42.688;23.256;2023-02-01T01:01:41;3.00;;;2.80;;
20298;SDS011;10308;42.688;23.256;2023-02-01T01:04:08;3.20;;;2.90;;
20298;SDS011;10308;42.688;23.256;2023-02-01T01:06:35;2.90;;;2.70;;
20298;SDS011;10308;42.688;23.256;2023-02-01T01:09:02;3.20;;;2.90;;
20298;SDS011;10308;42.688;23.256;2023-02-01T01:11:31;3.10;;;2.80;;
20298;SDS011;10308;42.688;23.256;2023-02-01T01:14:00;2.83;;;2.63;;
20298;SDS011;10308;42.688;23.256;2023-02-01T01:16:28;2.88;;;2.58;;
20298;SDS011;10308;42.688;23.256;2023-02-01T01:18:56;2.45;;;2.25;;
20298;SDS011;10308;42.688;23.256;2023-02-01T01:21:22;2.85;;;2.30;;
20298;SDS011;10308;42.688;23.256;2023-02-01T01:23:50;2.70;;;2.40;;
20298;SDS011;10308;42.688;23.256;2023-02-01T01:26:17;2.60;;;2.40;;
20298;SDS011;10308;42.688;23.256;2023-02-01T01:28:45;2.53;;;2.30;;
20298;SDS011;10308;42.688;23.256;2023-02-01T01:31:14;2.80;;;2.60;;
20298;SDS011;10308;42.688;23.256;2023-02-01T01:33:42;2.53;;;2.30;;
20298;SDS011;10308;42.688;23.256;2023-02-01T01:36:10;2.70;;;2.50;;
20298;SDS011;10308;42.688;23.256;2023-02-01T01:38:37;2.95;;;2.50;;
20298;SDS011;10308;42.688;23.256;2023-02-01T01:41:04;2.50;;;2.30;;
20298;SDS011;10308;42.688;23.256;2023-02-01T01:43:44;2.40;;;2.20;;
20298;SDS011;10308;42.688;23.256;2023-02-01T01:46:16;2.70;;;2.50;;
20298;SDS011;10308;42.688;23.256;2023-02-01T01:48:44;2.58;;;2.38;;
20298;SDS011;10308;42.688;23.256;2023-02-01T01:51:12;2.92;;;2.65;;
20298;SDS011;10308;42.688;23.256;2023-02-01T01:53:41;2.42;;;2.22;;
20298;SDS011;10308;42.688;23.256;2023-02-01T01:56:10;2.60;;;2.40;;
20298;SDS011;10308;42.688;23.256;2023-02-01T01:58:37;2.70;;;2.50;;
20298;SDS011;10308;42.688;23.256;2023-02-01T02:01:04;3.00;;;2.75;;
20298;SDS011;10308;42.688;23.256;2023-02-01T02:03:32;2.63;;;2.22;;
20298;SDS011;10308;42.688;23.256;2023-02-01T02:06:00;2.67;;;2.47;;
20298;SDS011;10308;42.688;23.256;2023-02-01T02:08:28;2.42;;;2.22;;
20298;SDS011;10308;42.688;23.256;2023-02-01T02:10:55;2.60;;;2.40;;
20298;SDS011;10308;42.688;23.256;2023-02-01T02:13:25;2.40;;;2.20;;
20298;SDS011;10308;42.688;23.256;2023-02-01T02:15:55;2.47;;;2.28;;
20298;SDS011;10308;42.688;23.256;2023-02-01T02:18:30;2.60;;;2.40;;
20298;SDS011;10308;42.688;23.256;2023-02-01T02:21:16;2.40;;;2.20;;
20298;SDS011;10308;42.688;23.256;2023-02-01T02:23:52;2.42;;;2.25;;
20298;SDS011;10308;42.688;23.256;2023-02-01T02:26:43;2.67;;;2.47;;
20298;SDS011;10308;42.688;23.256;2023-02-01T02:35:20;2.80;;;2.60;;
20298;SDS011;10308;42.688;23.256;2023-02-01T02:37:53;2.60;;;2.40;;
20298;SDS011;10308;42.688;23.256;2023-02-01T02:40:23;2.97;;;2.78;;
20298;SDS011;10308;42.688;23.256;2023-02-01T02:42:55;3.05;;;2.78;;
20298;SDS011;10308;42.688;23.256;2023-02-01T02:45:47;3.10;;;2.80;;
20298;SDS011;10308;42.688;23.256;2023-02-01T02:48:42;2.90;;;2.70;;
20298;SDS011;10308;42.688;23.256;2023-02-01T02:51:13;3.70;;;2.30;;
20298;SDS011;10308;42.688;23.256;2023-02-01T02:53:59;2.78;;;2.55;;
20298;SDS011;10308;42.688;23.256;2023-02-01T02:56:48;2.85;;;2.50;;
20298;SDS011;10308;42.688;23.256;2023-02-01T02:59:33;2.88;;;2.67;;
20298;SDS011;10308;42.688;23.256;2023-02-01T03:02:18;2.80;;;2.60;;
20298;SDS011;10308;42.688;23.256;2023-02-01T03:05:04;2.67;;;2.40;;
20298;SDS011;10308;42.688;23.256;2023-02-01T03:07:52;3.22;;;2.40;;
20298;SDS011;10308;42.688;23.256;2023-02-01T03:10:24;2.55;;;2.30;;
20298;SDS011;10308;42.688;23.256;2023-02-01T03:12:54;2.58;;;2.38;;
20298;SDS011;10308;42.688;23.256;2023-02-01T03:15:20;2.50;;;2.30;;
20298;SDS011;10308;42.688;23.256;2023-02-01T03:17:47;2.95;;;2.58;;
20298;SDS011;10308;42.688;23.256;2023-02-01T03:20:16;2.45;;;2.25;;
20298;SDS011;10308;42.688;23.256;2023-02-01T03:22:45;2.40;;;2.20;;
20298;SDS011;10308;42.688;23.256;2023-02-01T03:25:15;2.42;;;2.22;;
20298;SDS011;10308;42.688;23.256;2023-02-01T03:27:48;2.72;;;2.53;;
20298;SDS011;10308;42.688;23.256;2023-02-01T03:30:18;2.55;;;2.35;;
20298;SDS011;10308;42.688;23.256;2023-02-01T03:32:47;3.28;;;2.58;;
20298;SDS011;10308;42.688;23.256;2023-02-01T03:35:26;2.40;;;2.20;;
20298;SDS011;10308;42.688;23.256;2023-02-01T03:37:55;3.00;;;2.67;;
20298;SDS011;10308;42.688;23.256;2023-02-01T03:40:29;3.47;;;2.22;;
20298;SDS011;10308;42.688;23.256;2023-02-01T03:42:57;2.70;;;2.45;;
20298;SDS011;10308;42.688;23.256;2023-02-01T03:45:26;2.53;;;2.33;;
20298;SDS011;10308;42.688;23.256;2023-02-01T03:47:56;2.58;;;2.38;;
20298;SDS011;10308;42.688;23.256;2023-02-01T03:50:23;2.60;;;2.25;;
20298;SDS011;10308;42.688;23.256;2023-02-01T03:52:52;2.70;;;2.50;;
20298;SDS011;10308;42.688;23.256;2023-02-01T03:55:21;2.50;;;2.20;;
20298;SDS011;10308;42.688;23.256;2023-02-01T03:57:50;2.78;;;2.20;;
20298;SDS011;10308;42.688;23.256;2023-02-01T04:00:19;2.10;;;2.00;;
20298;SDS011;10308;42.688;23.256;2023-02-01T04:02:49;2.90;;;2.70;;
20298;SDS011;10308;42.688;23.256;2023-02-01T04:05:16;3.35;;;2.88;;
20298;SDS011;10308;42.688;23.256;2023-02-01T04:07:43;3.53;;;3.22;;
20298;SDS011;10308;42.688;23.256;2023-02-01T04:10:10;2.67;;;2.30;;
20298;SDS011;10308;42.688;23.256;2023-02-01T04:12:59;2.42;;;2.22;;
20298;SDS011;10308;42.688;23.256;2023-02-01T04:15:46;2.35;;;2.15;;
20298;SDS011;10308;42.688;23.256;2023-02-01T04:18:34;2.28;;;2.15;;
20298;SDS011;10308;42.688;23.256;2023-02-01T04:21:21;2.55;;;2.35;;
20298;SDS011;10308;42.688;23.256;2023-02-01T04:23:48;2.72;;;2.33;;
20298;SDS011;10308;42.688;23.256;2023-02-01T04:26:15;2.28;;;2.15;;
20298;SDS011;10308;42.688;23.256;2023-02-01T04:28:43;2.63;;;2.42;;
20298;SDS011;10308;42.688;23.256;2023-02-01T04:31:12;2.55;;;2.35;;
20298;SDS011;10308;42.688;23.256;2023-02-01T04:33:39;3.25;;;2.60;;
20298;SDS011;10308;42.688;23.256;2023-02-01T04:36:06;2.83;;;2.40;;
20298;SDS011;10308;42.688;23.256;2023-02-01T04:38:33;3.42;;;2.40;;
20298;SDS011;10308;42.688;23.256;2023-02-01T04:41:00;3.05;;;2.50;;
20298;SDS011;10308;42.688;23.256;2023-02-01T04:43:26;3.28;;;2.70;;
20298;SDS011;10308;42.688;23.256;2023-02-01T04:45:55;3.20;;;2.90;;
20298;SDS011;10308;42.688;23.256;2023-02-01T04:48:21;3.05;;;2.70;;
20298;SDS011;10308;42.688;23.256;2023-02-01T04:50:48;2.42;;;2.22;;
20298;SDS011;10308;42.688;23.256;2023-02-01T04:53:15;3.00;;;2.78;;
20298;SDS011;10308;42.688;23.256;2023-02-01T04:55:42;3.05;;;2.75;;
20298;SDS011;10308;42.688;23.256;2023-02-01T04:58:09;3.30;;;3.00;;
20298;SDS011;10308;42.688;23.256;2023-02-01T05:00:37;3.10;;;2.90;;
20298;SDS011;10308;42.688;23.256;2023-02-01T05:03:05;2.78;;;2.50;;
20298;SDS011;10308;42.688;23.256;2023-02-01T05:05:32;2.70;;;2.50;;
20298;SDS011;10308;42.688;23.256;2023-02-01T05:08:00;3.15;;;2.63;;
20298;SDS011;10308;42.688;23.256;2023-02-01T05:10:27;3.08;;;2.78;;
20298;SDS011;10308;42.688;23.256;2023-02-01T05:12:53;4.18;;;2.90;;
20298;SDS011;10308;42.688;23.256;2023-02-01T05:15:37;2.92;;;2.72;;
20298;SDS011;10308;42.688;23.256;2023-02-01T05:18:05;2.70;;;2.50;;
20298;SDS011;10308;42.688;23.256;2023-02-01T05:20:32;2.72;;;2.47;;
20298;SDS011;10308;42.688;23.256;2023-02-01T05:22:59;2.78;;;2.58;;
20298;SDS011;10308;42.688;23.256;2023-02-01T05:25:26;3.80;;;3.10;;
20298;SDS011;10308;42.688;23.256;2023-02-01T05:27:52;3.13;;;2.75;;
20298;SDS011;10308;42.688;23.256;2023-02-01T05:30:19;3.20;;;2.90;;
20298;SDS011;10308;42.688;23.256;2023-02-01T05:32:48;3.15;;;2.75;;
20298;SDS011;10308;42.688;23.256;2023-02-01T05:35:18;2.78;;;2.58;;
20298;SDS011;10308;42.688;23.256;2023-02-01T05:37:45;3.05;;;2.60;;
20298;SDS011;10308;42.688;23.256;2023-02-01T05:40:12;3.20;;;2.67;;
20298;SDS011;10308;42.688;23.256;2023-02-01T05:42:39;4.88;;;4.03;;
20298;SDS011;10308;42.688;23.256;2023-02-01T05:45:06;3.05;;;2.85;;
20298;SDS011;10308;42.688;23.256;2023-02-01T05:47:34;3.30;;;3.00;;
20298;SDS011;10308;42.688;23.256;2023-02-01T05:50:00;3.10;;;2.80;;
20298;SDS011;10308;42.688;23.256;2023-02-01T05:52:28;3.03;;;2.72;;
20298;SDS011;10308;42.688;23.256;2023-02-01T05:54:55;2.90;;;2.70;;
20298;SDS011;10308;42.688;23.256;2023-02-01T05:57:22;3.65;;;2.78;;
20298;SDS011;10308;42.688;23.256;2023-02-01T05:59:49;2.92;;;2.72;;
20298;SDS011;10308;42.688;23.256;2023-02-01T06:02:16;2.90;;;2.60;;
20298;SDS011;10308;42.688;23.256;2023-02-01T06:04:43;3.95;;;2.72;;
20298;SDS011;10308;42.688;23.256;2023-02-01T06:07:09;3.05;;;2.85;;
20298;SDS011;10308;42.688;23.256;2023-02-01T06:09:38;3.75;;;3.13;;
20298;SDS011;10308;42.688;23.256;2023-02-01T06:12:05;3.08;;;2.78;;
20298;SDS011;10308;42.688;23.256;2023-02-01T06:14:32;3.53;;;3.22;;
20298;SDS011;10308;42.688;23.256;2023-02-01T06:16:58;4.13;;;3.20;;
20298;SDS011;10308;42.688;23.256;2023-02-01T06:19:25;3.53;;;3.22;;
20298;SDS011;10308;42.688;23.256;2023-02-01T06:21:52;3.92;;;3.13;;
20298;SDS011;10308;42.688;23.256;2023-02-01T06:24:19;3.10;;;2.80;;
20298;SDS011;10308;42.688;23.256;2023-02-01T06:26:47;3.05;;;2.58;;
20298;SDS011;10308;42.688;23.256;2023-02-01T06:29:13;4.28;;;2.70;;
20298;SDS011;10308;42.688;23.256;2023-02-01T06:31:41;3.10;;;2.58;;
20298;SDS011;10308;42.688;23.256;2023-02-01T06:34:09;2.90;;;2.70;;
20298;SDS011;10308;42.688;23.256;2023-02-01T06:36:35;3.45;;;3.00;;
20298;SDS011;10308;42.688;23.256;2023-02-01T06:39:03;3.42;;;2.45;;
20298;SDS011;10308;42.688;23.256;2023-02-01T06:41:29;3.08;;;2.78;;
20298;SDS011;10308;42.688;23.256;2023-02-01T06:43:57;4.68;;;2.80;;
20298;SDS011;10308;42.688;23.256;2023-02-01T06:46:24;3.35;;;2.90;;
20298;SDS011;10308;42.688;23.256;2023-02-01T06:48:51;3.80;;;2.90;;
20298;SDS011;10308;42.688;23.256;2023-02-01T06:51:18;3.05;;;2.58;;
20298;SDS011;10308;42.688;23.256;2023-02-01T06:53:47;3.97;;;2.53;;
20298;SDS011;10308;42.688;23.256;2023-02-01T06:56:14;3.22;;;2.65;;
20298;SDS011;10308;42.688;23.256;2023-02-01T06:58:41;2.65;;;2.40;;
20298;SDS011;10308;42.688;23.256;2023-02-01T07:01:09;3.30;;;2.95;;
20298;SDS011;10308;42.688;23.256;2023-02-01T07:03:36;4.43;;;3.80;;
20298;SDS011;10308;42.688;23.256;2023-02-01T07:06:03;3.75;;;3.22;;
20298;SDS011;10308;42.688;23.256;2023-02-01T07:08:31;4.10;;;2.90;;
20298;SDS011;10308;42.688;23.256;2023-02-01T07:11:01;4.38;;;3.00;;
20298;SDS011;10308;42.688;23.256;2023-02-01T07:13:28;5.32;;;3.42;;
20298;SDS011;10308;42.688;23.256;2023-02-01T07:15:57;3.35;;;2.95;;
20298;SDS011;10308;42.688;23.256;2023-02-01T07:18:26;4.28;;;3.20;;
20298;SDS011;10308;42.688;23.256;2023-02-01T07:20:53;4.22;;;3.10;;
20298;SDS011;10308;42.688;23.256;2023-02-01T07:23:19;3.97;;;3.40;;
20298;SDS011;10308;42.688;23.256;2023-02-01T07:25:46;4.10;;;3.10;;
20298;SDS011;10308;42.688;23.256;2023-02-01T07:28:13;4.25;;;3.20;;
20298;SDS011;10308;42.688;23.256;2023-02-01T07:30:40;5.13;;;3.72;;
20298;SDS011;10308;42.688;23.256;2023-02-01T07:33:06;4.68;;;3.00;;
20298;SDS011;10308;42.688;23.256;2023-02-01T07:35:35;4.15;;;3.40;;
20298;SDS011;10308;42.688;23.256;2023-02-01T07:38:01;3.67;;;3.25;;
20298;SDS011;10308;42.688;23.256;2023-02-01T07:40:28;6.38;;;3.85;;
20298;SDS011;10308;42.688;23.256;2023-02-01T07:42:55;4.63;;;3.30;;
20298;SDS011;10308;42.688;23.256;2023-02-01T07:45:22;4.05;;;2.80;;
20298;SDS011;10308;42.688;23.256;2023-02-01T07:47:51;3.50;;;2.55;;
20298;SDS011;10308;42.688;23.256;2023-02-01T07:50:18;4.00;;;3.00;;
20298;SDS011;10308;42.688;23.256;2023-02-01T07:52:46;2.47;;;2.25;;
20298;SDS011;10308;42.688;23.256;2023-02-01T07:55:13;3.67;;;3.15;;
20298;SDS011;10308;42.688;23.256;2023-02-01T07:57:40;4.53;;;2.60;;
20298;SDS011;10308;42.688;23.256;2023-02-01T08:00:07;3.63;;;2.70;;
20298;SDS011;10308;42.688;23.256;2023-02-01T08:02:52;3.92;;;3.20;;
20298;SDS011;10308;42.688;23.256;2023-02-01T08:05:18;5.00;;;3.50;;
20298;SDS011;10308;42.688;23.256;2023-02-01T08:07:49;4.35;;;3.00;;
20298;SDS011;10308;42.688;23.256;2023-02-01T08:10:16;3.90;;;3.50;;
20298;SDS011;10308;42.688;23.256;2023-02-01T08:12:43;2.90;;;2.60;;
20298;SDS011;10308;42.688;23.256;2023-02-01T08:15:13;4.47;;;2.25;;
20298;SDS011;10308;42.688;23.256;2023-02-01T08:17:40;3.70;;;2.80;;
20298;SDS011;10308;42.688;23.256;2023-02-01T08:20:07;3.35;;;2.63;;
20298;SDS011;10308;42.688;23.256;2023-02-01T08:22:35;3.47;;;2.65;;
20298;SDS011;10308;42.688;23.256;2023-02-01T08:25:04;3.95;;;2.90;;
20298;SDS011;10308;42.688;23.256;2023-02-01T08:27:32;4.50;;;3.10;;
20298;SDS011;10308;42.688;23.256;2023-02-01T08:29:59;4.20;;;2.90;;
20298;SDS011;10308;42.688;23.256;2023-02-01T08:32:26;4.97;;;3.47;;
20298;SDS011;10308;42.688;23.256;2023-02-01T08:34:53;4.90;;;3.88;;
20298;SDS011;10308;42.688;23.256;2023-02-01T08:37:19;3.85;;;3.20;;
20298;SDS011;10308;42.688;23.256;2023-02-01T08:39:47;4.88;;;3.70;;
20298;SDS011;10308;42.688;23.256;2023-02-01T08:42:17;5.65;;;3.95;;
20298;SDS011;10308;42.688;23.256;2023-02-01T08:45:01;2.95;;;2.60;;
20298;SDS011;10308;42.688;23.256;2023-02-01T08:47:29;4.78;;;3.15;;
20298;SDS011;10308;42.688;23.256;2023-02-01T08:49:56;3.90;;;2.50;;
20298;SDS011;10308;42.688;23.256;2023-02-01T08:52:23;3.42;;;2.20;;
20298;SDS011;10308;42.688;23.256;2023-02-01T08:54:50;3.00;;;2.45;;
20298;SDS011;10308;42.688;23.256;2023-02-01T08:57:18;3.83;;;2.47;;
20298;SDS011;10308;42.688;23.256;2023-02-01T08:59:45;3.17;;;2.80;;
20298;SDS011;10308;42.688;23.256;2023-02-01T09:02:12;3.40;;;2.15;;
20298;SDS011;10308;42.688;23.256;2023-02-01T09:04:39;2.65;;;2.20;;
20298;SDS011;10308;42.688;23.256;2023-02-01T09:07:07;3.63;;;2.30;;
20298;SDS011;10308;42.688;23.256;2023-02-01T09:09:33;2.85;;;2.50;;
20298;SDS011;10308;42.688;23.256;2023-02-01T09:12:00;3.05;;;2.25;;
20298;SDS011;10308;42.688;23.256;2023-02-01T09:14:28;4.65;;;3.00;;
20298;SDS011;10308;42.688;23.256;2023-02-01T09:16:55;3.55;;;3.25;;
20298;SDS011;10308;42.688;23.256;2023-02-01T09:19:22;4.90;;;3.42;;
20298;SDS011;10308;42.688;23.256;2023-02-01T09:21:48;3.92;;;2.97;;
20298;SDS011;10308;42.688;23.256;2023-02-01T09:24:15;3.75;;;3.40;;
20298;SDS011;10308;42.688;23.256;2023-02-01T09:26:42;4.45;;;2.97;;
20298;SDS011;10308;42.688;23.256;2023-02-01T09:29:09;3.13;;;2.72;;
20298;SDS011;10308;42.688;23.256;2023-02-01T09:31:39;4.30;;;2.70;;
20298;SDS011;10308;42.688;23.256;2023-02-01T09:34:07;4.10;;;3.05;;
20298;SDS011;10308;42.688;23.256;2023-02-01T09:36:34;6.43;;;4.80;;
20298;SDS011;10308;42.688;23.256;2023-02-01T09:39:01;3.83;;;3.42;;
20298;SDS011;10308;42.688;23.256;2023-02-01T09:41:34;4.70;;;3.30;;
20298;SDS011;10308;42.688;23.256;2023-02-01T09:44:06;3.88;;;3.22;;
20298;SDS011;10308;42.688;23.256;2023-02-01T09:46:36;4.63;;;3.50;;
20298;SDS011;10308;42.688;23.256;2023-02-01T09:49:08;3.80;;;2.47;;
20298;SDS011;10308;42.688;23.256;2023-02-01T09:51:39;4.45;;;2.70;;
20298;SDS011;10308;42.688;23.256;2023-02-01T09:54:09;3.03;;;2.70;;
20298;SDS011;10308;42.688;23.256;2023-02-01T09:56:39;3.55;;;3.00;;
20298;SDS011;10308;42.688;23.256;2023-02-01T09:59:09;5.05;;;3.90;;
20298;SDS011;10308;42.688;23.256;2023-02-01T10:01:40;3.60;;;3.20;;
20298;SDS011;10308;42.688;23.256;2023-02-01T10:04:10;3.08;;;2.63;;
20298;SDS011;10308;42.688;23.256;2023-02-01T10:06:41;2.60;;;2.40;;
20298;SDS011;10308;42.688;23.256;2023-02-01T10:09:22;2.60;;;2.00;;
20298;SDS011;10308;42.688;23.256;2023-02-01T10:12:04;3.33;;;2.60;;
20298;SDS011;10308;42.688;23.256;2023-02-01T10:14:52;3.92;;;2.70;;
20298;SDS011;10308;42.688;23.256;2023-02-01T10:17:31;2.60;;;2.40;;
20298;SDS011;10308;42.688;23.256;2023-02-01T10:20:13;2.67;;;2.47;;
20298;SDS011;10308;42.688;23.256;2023-02-01T10:22:45;3.25;;;2.70;;
20298;SDS011;10308;42.688;23.256;2023-02-01T10:25:14;2.50;;;2.30;;
20298;SDS011;10308;42.688;23.256;2023-02-01T10:27:45;2.30;;;2.10;;
20298;SDS011;10308;42.688;23.256;2023-02-01T10:30:16;2.58;;;2.33;;
20298;SDS011;10308;42.688;23.256;2023-02-01T10:32:45;3.53;;;2.70;;
20298;SDS011;10308;42.688;23.256;2023-02-01T10:35:14;2.95;;;2.70;;
20298;SDS011;10308;42.688;23.256;2023-02-01T10:37:43;3.28;;;2.38;;
20298;SDS011;10308;42.688;23.256;2023-02-01T10:40:18;3.53;;;2.72;;
20298;SDS011;10308;42.688;23.256;2023-02-01T10:42:47;2.40;;;2.17;;
20298;SDS011;10308;42.688;23.256;2023-02-01T10:45:15;2.63;;;2.13;;
20298;SDS011;10308;42.688;23.256;2023-02-01T10:47:43;2.95;;;2.20;;
20298;SDS011;10308;42.688;23.256;2023-02-01T10:50:17;2.28;;;2.08;;
20298;SDS011;10308;42.688;23.256;2023-02-01T10:52:46;2.40;;;2.17;;
20298;SDS011;10308;42.688;23.256;2023-02-01T10:55:28;2.78;;;2.15;;
20298;SDS011;10308;42.688;23.256;2023-02-01T10:57:57;3.45;;;2.53;;
20298;SDS011;10308;42.688;23.256;2023-02-01T11:00:24;4.38;;;2.35;;
20298;SDS011;10308;42.688;23.256;2023-02-01T11:02:51;2.92;;;2.17;;
20298;SDS011;10308;42.688;23.256;2023-02-01T11:05:20;2.80;;;2.35;;
20298;SDS011;10308;42.688;23.256;2023-02-01T11:07:48;3.28;;;2.70;;
20298;SDS011;10308;42.688;23.256;2023-02-01T11:13:01;2.85;;;2.17;;
20298;SDS011;10308;42.688;23.256;2023-02-01T11:15:29;2.58;;;2.38;;
20298;SDS011;10308;42.688;23.256;2023-02-01T11:17:55;2.08;;;1.98;;
20298;SDS011;10308;42.688;23.256;2023-02-01T11:20:33;2.10;;;1.90;;
20298;SDS011;10308;42.688;23.256;2023-02-01T11:23:02;3.00;;;2.10;;
20298;SDS011;10308;42.688;23.256;2023-02-01T11:25:29;2.20;;;2.00;;
20298;SDS011;10308;42.688;23.256;2023-02-01T11:27:57;2.70;;;2.00;;
20298;SDS011;10308;42.688;23.256;2023-02-01T11:30:27;2.15;;;1.95;;
20298;SDS011;10308;42.688;23.256;2023-02-01T11:32:58;2.70;;;2.10;;
20298;SDS011;10308;42.688;23.256;2023-02-01T11:35:27;2.38;;;2.17;;
20298;SDS011;10308;42.688;23.256;2023-02-01T11:37:55;2.80;;;2.15;;
20298;SDS011;10308;42.688;23.256;2023-02-01T11:40:26;2.72;;;1.80;;
20298;SDS011;10308;42.688;23.256;2023-02-01T11:42:55;2.50;;;2.10;;
20298;SDS011;10308;42.688;23.256;2023-02-01T11:45:25;1.95;;;1.75;;
20298;SDS011;10308;42.688;23.256;2023-02-01T11:47:53;2.47;;;1.90;;
20298;SDS011;10308;42.688;23.256;2023-02-01T11:50:24;1.90;;;1.80;;
20298;SDS011;10308;42.688;23.256;2023-02-01T11:53:02;2.50;;;2.30;;
20298;SDS011;10308;42.688;23.256;2023-02-01T11:55:45;1.90;;;1.80;;
20298;SDS011;10308;42.688;23.256;2023-02-01T11:58:39;2.38;;;2.17;;
20298;SDS011;10308;42.688;23.256;2023-02-01T12:01:34;4.00;;;3.05;;
20298;SDS011;10308;42.688;23.256;2023-02-01T12:04:35;2.53;;;2.13;;
20298;SDS011;10308;42.688;23.256;2023-02-01T12:07:19;2.33;;;1.90;;
20298;SDS011;10308;42.688;23.256;2023-02-01T12:09:55;2.10;;;1.95;;
20298;SDS011;10308;42.688;23.256;2023-02-01T12:12:32;2.10;;;1.90;;
20298;SDS011;10308;42.688;23.256;2023-02-01T12:15:12;2.70;;;2.50;;
20298;SDS011;10308;42.688;23.256;2023-02-01T12:23:35;2.13;;;2.03;;
20298;SDS011;10308;42.688;23.256;2023-02-01T12:26:12;2.25;;;2.05;;
20298;SDS011;10308;42.688;23.256;2023-02-01T12:29:02;1.90;;;1.80;;
20298;SDS011;10308;42.688;23.256;2023-02-01T12:31:43;2.10;;;2.00;;
20298;SDS011;10308;42.688;23.256;2023-02-01T12:34:23;2.33;;;2.13;;
20298;SDS011;10308;42.688;23.256;2023-02-01T12:36:59;2.15;;;1.70;;
20298;SDS011;10308;42.688;23.256;2023-02-01T12:39:38;1.95;;;1.73;;
20298;SDS011;10308;42.688;23.256;2023-02-01T12:42:09;4.00;;;2.70;;
20298;SDS011;10308;42.688;23.256;2023-02-01T12:44:40;2.38;;;2.13;;
20298;SDS011;10308;42.688;23.256;2023-02-01T12:47:12;2.30;;;2.10;;
20298;SDS011;10308;42.688;23.256;2023-02-01T12:49:45;2.30;;;2.08;;
20298;SDS011;10308;42.688;23.256;2023-02-01T12:52:21;3.50;;;2.00;;
20298;SDS011;10308;42.688;23.256;2023-02-01T12:54:55;5.32;;;2.10;;
20298;SDS011;10308;42.688;23.256;2023-02-01T12:57:26;2.38;;;2.00;;
20298;SDS011;10308;42.688;23.256;2023-02-01T12:59:56;1.95;;;1.83;;
20298;SDS011;10308;42.688;23.256;2023-02-01T13:02:28;2.20;;;2.00;;
20298;SDS011;10308;42.688;23.256;2023-02-01T13:05:02;2.10;;;1.90;;
20298;SDS011;10308;42.688;23.256;2023-02-01T13:07:33;2.88;;;2.00;;
20298;SDS011;10308;42.688;23.256;2023-02-01T13:10:11;3.53;;;2.28;;
20298;SDS011;10308;42.688;23.256;2023-02-01T13:12:40;3.20;;;2.08;;
20298;SDS011;10308;42.688;23.256;2023-02-01T13:15:12;2.58;;;2.10;;
20298;SDS011;10308;42.688;23.256;2023-02-01T13:17:41;2.60;;;2.00;;
20298;SDS011;10308;42.688;23.256;2023-02-01T13:20:13;2.45;;;2.25;;
20298;SDS011;10308;42.688;23.256;2023-02-01T13:22:45;3.03;;;2.10;;
20298;SDS011;10308;42.688;23.256;2023-02-01T13:25:26;2.35;;;2.10;;
20298;SDS011;10308;42.688;23.256;2023-02-01T13:27:56;2.28;;;2.00;;
20298;SDS011;10308;42.688;23.256;2023-02-01T13:30:26;2.40;;;2.13;;
20298;SDS011;10308;42.688;23.256;2023-02-01T13:33:09;2.00;;;1.75;;
20298;SDS011;10308;42.688;23.256;2023-02-01T13:35:50;2.22;;;2.05;;
20298;SDS011;10308;42.688;23.256;2023-02-01T13:41:22;2.63;;;1.98;;
20298;SDS011;10308;42.688;23.256;2023-02-01T13:43:53;2.83;;;1.92;;
20298;SDS011;10308;42.688;23.256;2023-02-01T13:46:21;3.17;;;2.08;;
20298;SDS011;10308;42.688;23.256;2023-02-01T13:48:49;2.88;;;1.90;;
20298;SDS011;10308;42.688;23.256;2023-02-01T13:51:18;1.80;;;1.70;;
20298;SDS011;10308;42.688;23.256;2023-02-01T13:53:59;2.15;;;1.90;;
20298;SDS011;10308;42.688;23.256;2023-02-01T13:56:27;2.55;;;1.90;;
20298;SDS011;10308;42.688;23.256;2023-02-01T13:58:54;2.75;;;1.90;;
20298;SDS011;10308;42.688;23.256;2023-02-01T14:07:15;2.85;;;2.33;;
20298;SDS011;10308;42.688;23.256;2023-02-01T14:09:44;2.40;;;2.20;;
20298;SDS011;10308;42.688;23.256;2023-02-01T14:15:21;2.35;;;2.13;;
20298;SDS011;10308;42.688;23.256;2023-02-01T14:17:49;2.25;;;2.05;;
20298;SDS011;10308;42.688;23.256;2023-02-01T14:23:23;2.40;;;2.20;;
20298;SDS011;10308;42.688;23.256;2023-02-01T14:28:46;2.92;;;2.35;;
20298;SDS011;10308;42.688;23.256;2023-02-01T14:34:39;2.03;;;1.92;;
20298;SDS011;10308;42.688;23.256;2023-02-01T14:37:11;2.42;;;2.22;;
20298;SDS011;10308;42.688;23.256;2023-02-01T14:39:50;2.55;;;2.10;;
20298;SDS011;10308;42.688;23.256;2023-02-01T14:42:21;3.03;;;2.30;;
20298;SDS011;10308;42.688;23.256;2023-02-01T14:44:52;2.80;;;2.20;;
20298;SDS011;10308;42.688;23.256;2023-02-01T14:47:29;2.58;;;2.38;;
20298;SDS011;10308;42.688;23.256;2023-02-01T14:50:02;2.53;;;2.33;;
20298;SDS011;10308;42.688;23.256;2023-02-01T14:52:46;2.50;;;2.28;;
20298;SDS011;10308;42.688;23.256;2023-02-01T14:55:15;2.40;;;2.20;;
20298;SDS011;10308;42.688;23.256;2023-02-01T14:57:46;2.10;;;2.00;;
20298;SDS011;10308;42.688;23.256;2023-02-01T15:00:19;2.42;;;2.22;;
20298;SDS011;10308;42.688;23.256;2023-02-01T15:02:48;2.55;;;2.33;;
20298;SDS011;10308;42.688;23.256;2023-02-01T15:05:22;2.40;;;2.20;;
20298;SDS011;10308;42.688;23.256;2023-02-01T15:07:51;3.83;;;2.63;;
20298;SDS011;10308;42.688;23.256;2023-02-01T15:10:18;2.53;;;2.30;;
20298;SDS011;10308;42.688;23.256;2023-02-01T15:12:45;3.00;;;2.25;;
20298;SDS011;10308;42.688;23.256;2023-02-01T15:15:14;4.22;;;3.00;;
20298;SDS011;10308;42.688;23.256;2023-02-01T15:17:49;2.97;;;2.40;;
20298;SDS011;10308;42.688;23.256;2023-02-01T15:20:17;2.65;;;2.28;;
20298;SDS011;10308;42.688;23.256;2023-02-01T15:22:56;3.35;;;2.83;;
20298;SDS011;10308;42.688;23.256;2023-02-01T15:25:25;3.00;;;2.80;;
20298;SDS011;10308;42.688;23.256;2023-02-01T15:27:53;3.22;;;2.70;;